createdAt,value
2022-09-22T00:01:57.762Z,2.10
2022-09-22T00:04:33.528Z,2.00
2022-09-22T00:07:01.649Z,2.10
2022-09-22T00:09:29.259Z,1.80
2022-09-22T00:12:03.319Z,1.87
2022-09-22T00:14:31.333Z,1.90
2022-09-22T00:17:12.303Z,2.07
2022-09-22T00:19:39.865Z,2.23
2022-09-22T00:22:07.347Z,2.00
2022-09-22T00:24:42.290Z,2.10
2022-09-22T00:27:09.807Z,1.90
2022-09-22T00:29:37.409Z,2.20
2022-09-22T00:32:11.285Z,2.40
2022-09-22T00:34:46.149Z,2.43
2022-09-22T00:37:20.320Z,2.10
2022-09-22T00:39:47.906Z,2.00
2022-09-22T00:42:16.112Z,2.17
2022-09-22T00:44:51.285Z,2.17
2022-09-22T00:47:36.497Z,2.00
2022-09-22T00:50:28.287Z,2.40
2022-09-22T00:53:25.406Z,1.93
2022-09-22T00:56:05.295Z,2.00
2022-09-22T00:58:46.445Z,1.90
2022-09-22T01:01:22.357Z,1.80
2022-09-22T01:03:50.933Z,2.27
2022-09-22T01:06:30.297Z,1.97
2022-09-22T01:08:59.742Z,1.90
2022-09-22T01:11:28.965Z,2.00
2022-09-22T01:14:27.318Z,2.20
2022-09-22T01:17:21.066Z,1.93
2022-09-22T01:20:21.415Z,1.73
2022-09-22T01:23:25.257Z,2.20
2022-09-22T01:26:05.332Z,2.03
2022-09-22T01:29:20.281Z,2.17
2022-09-22T01:32:03.333Z,2.40
2022-09-22T01:34:43.355Z,2.00
2022-09-22T01:37:21.288Z,2.10
2022-09-22T01:40:06.040Z,1.77
2022-09-22T01:43:02.332Z,2.07
2022-09-22T01:45:31.768Z,2.13
2022-09-22T01:48:26.360Z,1.93
2022-09-22T01:51:06.304Z,2.40
2022-09-22T01:53:47.331Z,2.00
2022-09-22T01:56:18.802Z,2.10
2022-09-22T01:59:13.380Z,2.40
2022-09-22T02:01:50.936Z,2.57
2022-09-22T02:04:30.323Z,2.30
2022-09-22T02:07:05.265Z,2.30
2022-09-22T02:09:42.324Z,2.30
2022-09-22T02:12:10.039Z,2.40
2022-09-22T02:14:37.757Z,2.07
2022-09-22T02:17:12.311Z,2.07
2022-09-22T02:19:41.713Z,2.47
2022-09-22T02:22:11.670Z,2.00
2022-09-22T02:24:49.324Z,2.50
2022-09-22T02:27:26.915Z,2.30
2022-09-22T02:30:15.302Z,1.93
2022-09-22T02:33:07.368Z,2.13
2022-09-22T02:35:46.318Z,2.20
2022-09-22T02:38:22.622Z,2.10
2022-09-22T02:41:19.018Z,2.80
2022-09-22T02:44:12.038Z,2.50
2022-09-22T02:46:55.306Z,2.50
2022-09-22T02:49:23.771Z,2.13
2022-09-22T02:51:52.851Z,2.50
2022-09-22T02:54:27.405Z,2.33
2022-09-22T02:56:58.080Z,2.23
2022-09-22T02:59:25.831Z,2.30
2022-09-22T03:02:02.301Z,2.53
2022-09-22T03:04:30.447Z,2.97
2022-09-22T03:06:58.006Z,2.33
2022-09-22T03:09:32.295Z,2.53
2022-09-22T03:11:59.869Z,2.77
2022-09-22T03:14:27.683Z,2.50
2022-09-22T03:17:01.281Z,2.60
2022-09-22T03:19:28.755Z,2.80
2022-09-22T03:21:57.687Z,2.60
2022-09-22T03:24:31.314Z,2.57
2022-09-22T03:26:58.794Z,2.70
2022-09-22T03:29:29.893Z,2.70
2022-09-22T03:32:17.316Z,2.50
2022-09-22T03:35:05.318Z,5.13
2022-09-22T03:37:40.324Z,3.70
2022-09-22T03:40:08.196Z,3.20
2022-09-22T03:42:36.876Z,4.77
2022-09-22T03:45:12.304Z,3.77
2022-09-22T03:47:39.890Z,3.30
2022-09-22T03:50:07.832Z,2.83
2022-09-22T03:52:43.209Z,3.00
2022-09-22T03:55:11.688Z,2.60
2022-09-22T03:57:41.100Z,3.93
2022-09-22T04:00:17.362Z,3.77
2022-09-22T04:02:45.090Z,4.00
2022-09-22T04:05:12.915Z,5.27
2022-09-22T04:07:49.311Z,4.47
2022-09-22T04:10:16.964Z,3.80
2022-09-22T04:12:44.370Z,2.87
2022-09-22T04:15:18.311Z,3.00
2022-09-22T04:17:46.308Z,2.80
2022-09-22T04:20:13.860Z,2.57
2022-09-22T04:22:47.338Z,2.70
2022-09-22T04:25:18.283Z,2.80
2022-09-22T04:27:48.298Z,4.10
2022-09-22T04:30:22.350Z,3.30
2022-09-22T04:32:49.757Z,3.10
2022-09-22T04:35:30.351Z,3.10
2022-09-22T04:37:58.495Z,4.00
2022-09-22T04:40:26.336Z,5.00
2022-09-22T04:43:00.344Z,3.73
2022-09-22T04:45:27.964Z,5.00
2022-09-22T04:47:55.889Z,5.50
2022-09-22T04:50:31.336Z,4.73
2022-09-22T04:52:58.985Z,4.90
2022-09-22T04:55:26.555Z,4.70
2022-09-22T04:58:03.378Z,4.97
2022-09-22T05:00:32.416Z,7.00
2022-09-22T05:03:02.093Z,5.80
2022-09-22T05:05:37.337Z,4.67
2022-09-22T05:08:05.370Z,4.40
2022-09-22T05:10:35.528Z,4.87
2022-09-22T05:13:10.495Z,4.70
2022-09-22T05:15:38.068Z,4.57
2022-09-22T05:18:05.731Z,3.43
2022-09-22T05:20:39.314Z,3.83
2022-09-22T05:23:08.031Z,3.80
2022-09-22T05:25:35.507Z,3.33
2022-09-22T05:28:10.357Z,3.53
2022-09-22T05:30:37.777Z,3.70
2022-09-22T05:33:18.372Z,3.37
2022-09-22T05:35:52.554Z,3.67
2022-09-22T05:38:27.394Z,3.77
2022-09-22T05:40:56.169Z,3.57
2022-09-22T05:43:23.662Z,3.13
2022-09-22T05:45:58.396Z,3.30
2022-09-22T05:48:30.968Z,3.53
2022-09-22T05:51:08.394Z,3.37
2022-09-22T05:53:35.890Z,3.97
2022-09-22T05:56:03.536Z,3.50
2022-09-22T05:58:38.362Z,3.70
2022-09-22T06:01:06.293Z,3.90
2022-09-22T06:03:33.952Z,2.80
2022-09-22T06:06:08.394Z,3.57
2022-09-22T06:08:36.039Z,3.43
2022-09-22T06:11:03.509Z,3.63
2022-09-22T06:13:37.374Z,3.23
2022-09-22T06:16:05.175Z,3.50
2022-09-22T06:18:32.685Z,3.37
2022-09-22T06:21:06.370Z,3.40
2022-09-22T06:23:33.896Z,3.07
2022-09-22T06:26:02.266Z,3.00
2022-09-22T06:28:36.716Z,3.33
2022-09-22T06:31:04.566Z,3.33
2022-09-22T06:33:45.408Z,3.20
2022-09-22T06:36:30.788Z,3.07
2022-09-22T06:39:05.541Z,3.10
2022-09-22T06:41:35.011Z,2.80
2022-09-22T06:44:02.742Z,3.00
2022-09-22T06:46:39.359Z,3.10
2022-09-22T06:49:07.040Z,2.83
2022-09-22T06:51:36.941Z,2.80
2022-09-22T06:54:12.375Z,2.40
2022-09-22T06:56:40.299Z,2.87
2022-09-22T06:59:19.509Z,2.65
2022-09-22T07:01:48.470Z,2.45
2022-09-22T07:04:17.815Z,2.30
2022-09-22T07:06:52.401Z,2.30
2022-09-22T07:09:20.140Z,2.60
2022-09-22T07:11:49.143Z,2.20
2022-09-22T07:14:29.989Z,2.20
2022-09-22T07:16:57.626Z,2.03
2022-09-22T07:19:26.699Z,2.20
2022-09-22T07:22:00.393Z,1.90
2022-09-22T07:24:27.930Z,1.70
2022-09-22T07:26:55.618Z,1.90
2022-09-22T07:29:29.391Z,2.03
2022-09-22T07:31:59.529Z,2.03
2022-09-22T07:34:48.368Z,1.88
2022-09-22T07:37:16.319Z,1.90
2022-09-22T07:39:45.812Z,1.77
2022-09-22T07:42:20.383Z,1.88
2022-09-22T07:45:06.431Z,1.80
2022-09-22T07:48:12.386Z,1.95
2022-09-22T07:50:39.871Z,1.27
2022-09-22T07:53:07.393Z,1.45
2022-09-22T07:55:43.378Z,1.45
2022-09-22T07:58:15.225Z,1.30
2022-09-22T08:00:51.476Z,1.40
2022-09-22T08:03:19.138Z,1.80
2022-09-22T08:06:01.367Z,1.95
2022-09-22T08:08:34.613Z,1.42
2022-09-22T08:11:20.469Z,2.80
2022-09-22T08:14:10.041Z,5.22
2022-09-22T08:16:48.896Z,1.73
2022-09-22T08:19:16.753Z,1.25
2022-09-22T08:21:49.321Z,1.30
2022-09-22T08:24:28.404Z,1.45
2022-09-22T08:26:56.377Z,1.33
2022-09-22T08:29:24.609Z,1.23
2022-09-22T08:31:58.396Z,1.10
2022-09-22T08:34:46.358Z,1.70
2022-09-22T08:37:20.397Z,1.10
2022-09-22T08:39:53.252Z,1.38
2022-09-22T08:42:29.276Z,1.00
2022-09-22T08:45:16.958Z,1.02
2022-09-22T08:48:17.146Z,1.50
2022-09-22T08:51:14.253Z,1.50
2022-09-22T08:54:03.028Z,1.10
2022-09-22T08:57:22.345Z,1.17
2022-09-22T09:00:20.391Z,1.10
2022-09-22T09:03:01.301Z,1.17
2022-09-22T09:06:07.081Z,1.50
2022-09-22T09:09:11.086Z,1.30
2022-09-22T09:12:13.187Z,1.50
2022-09-22T09:14:59.241Z,1.80
2022-09-22T09:17:40.128Z,1.30
2022-09-22T09:20:26.501Z,1.38
2022-09-22T09:23:02.198Z,1.25
2022-09-22T09:25:36.854Z,1.15
2022-09-22T09:28:19.216Z,1.13
2022-09-22T09:30:52.339Z,1.27
2022-09-22T09:33:44.097Z,1.00
2022-09-22T09:36:22.907Z,1.33
2022-09-22T09:39:01.260Z,1.10
2022-09-22T09:41:31.824Z,1.40
2022-09-22T09:44:11.249Z,1.30
2022-09-22T09:47:06.683Z,2.35
2022-09-22T09:49:41.246Z,1.30
2022-09-22T09:52:13.295Z,1.20
2022-09-22T09:54:54.350Z,1.30
2022-09-22T09:57:27.466Z,1.30
2022-09-22T10:00:38.245Z,1.20
2022-09-22T10:03:35.780Z,1.40
2022-09-22T10:06:15.302Z,1.02
2022-09-22T10:08:51.547Z,1.40
2022-09-22T10:11:38.278Z,1.20
2022-09-22T10:14:17.003Z,1.20
2022-09-22T10:16:59.294Z,0.90
2022-09-22T10:19:32.169Z,1.00
2022-09-22T10:22:39.083Z,1.02
2022-09-22T10:25:18.301Z,1.02
2022-09-22T10:28:06.348Z,1.05
2022-09-22T10:30:37.688Z,1.00
2022-09-22T10:33:19.355Z,1.10
2022-09-22T10:36:02.327Z,1.20
2022-09-22T10:41:35.553Z,1.02
2022-09-22T10:44:38.056Z,0.90
2022-09-22T10:47:27.391Z,1.00
2022-09-22T10:50:27.230Z,0.95
2022-09-22T10:53:06.154Z,1.30
2022-09-22T10:56:13.654Z,1.88
2022-09-22T10:59:15.328Z,1.38
2022-09-22T11:02:07.613Z,0.90
2022-09-22T11:05:01.700Z,1.25
2022-09-22T11:08:31.618Z,1.02
2022-09-22T11:11:23.154Z,1.08
2022-09-22T11:14:23.498Z,1.13
2022-09-22T11:17:03.478Z,1.38
2022-09-22T11:19:59.534Z,1.20
2022-09-22T11:22:57.574Z,1.30
2022-09-22T11:26:17.760Z,0.93
2022-09-22T11:29:17.218Z,1.60
2022-09-22T11:32:20.770Z,1.20
2022-09-22T11:35:26.799Z,1.40
2022-09-22T11:38:45.848Z,1.15
2022-09-22T11:41:54.105Z,1.17
2022-09-22T11:44:35.749Z,1.90
2022-09-22T11:47:06.337Z,1.40
2022-09-22T11:50:07.450Z,1.17
2022-09-22T11:52:58.533Z,1.30
2022-09-22T11:55:51.370Z,1.85
2022-09-22T11:58:24.183Z,1.38
2022-09-22T12:01:13.405Z,1.40
2022-09-22T12:03:58.934Z,1.73
2022-09-22T12:06:40.676Z,1.40
2022-09-22T12:09:17.200Z,1.20
2022-09-22T12:11:52.380Z,1.33
2022-09-22T12:14:20.289Z,1.77
2022-09-22T12:17:10.385Z,1.75
2022-09-22T12:20:01.464Z,1.20
2022-09-22T12:22:56.546Z,1.58
2022-09-22T12:25:48.399Z,1.40
2022-09-22T12:28:34.494Z,1.20
2022-09-22T12:31:16.747Z,1.23
2022-09-22T12:34:03.395Z,1.50
2022-09-22T12:36:40.662Z,1.30
2022-09-22T12:39:31.388Z,1.40
2022-09-22T12:42:01.132Z,1.40
2022-09-22T12:44:56.353Z,1.50
2022-09-22T12:47:37.127Z,1.30
2022-09-22T12:50:33.395Z,1.70
2022-09-22T12:53:11.058Z,1.58
2022-09-22T12:55:45.402Z,1.35
2022-09-22T12:58:22.533Z,1.52
2022-09-22T13:00:58.510Z,1.60
2022-09-22T13:03:26.229Z,1.23
2022-09-22T13:06:08.370Z,1.48
2022-09-22T13:08:36.744Z,1.67
2022-09-22T13:11:08.237Z,1.58
2022-09-22T13:13:43.356Z,1.60
2022-09-22T13:16:26.523Z,1.17
2022-09-22T13:19:07.427Z,1.10
2022-09-22T13:21:35.758Z,1.27
2022-09-22T13:24:06.382Z,1.30
2022-09-22T13:26:41.410Z,1.50
2022-09-22T13:29:13.671Z,1.15
2022-09-22T13:31:52.537Z,1.58
2022-09-22T13:34:35.671Z,1.75
2022-09-22T13:37:27.362Z,2.60
2022-09-22T13:39:55.580Z,1.27
2022-09-22T13:42:38.425Z,1.30
2022-09-22T13:45:19.105Z,1.27
2022-09-22T13:47:54.373Z,5.25
2022-09-22T13:50:23.145Z,1.30
2022-09-22T13:52:51.972Z,1.50
2022-09-22T13:55:41.409Z,1.20
2022-09-22T13:58:13.752Z,1.08
2022-09-22T14:01:13.568Z,1.20
2022-09-22T14:03:42.410Z,1.35
2022-09-22T14:06:32.432Z,1.13
2022-09-22T14:09:01.730Z,1.00
2022-09-22T14:11:39.477Z,1.30
2022-09-22T14:14:32.546Z,1.20
2022-09-22T14:17:12.464Z,1.15
2022-09-22T14:19:48.727Z,0.98
2022-09-22T14:22:30.477Z,1.20
2022-09-22T14:25:00.138Z,1.10
2022-09-22T14:27:38.464Z,1.33
2022-09-22T14:30:07.103Z,1.05
2022-09-22T14:32:37.142Z,1.25
2022-09-22T14:35:15.499Z,1.00
2022-09-22T14:37:51.580Z,1.00
2022-09-22T14:40:28.507Z,1.00
2022-09-22T14:43:03.372Z,1.30
2022-09-22T14:45:39.498Z,1.00
2022-09-22T14:48:13.243Z,1.08
2022-09-22T14:50:54.438Z,1.02
2022-09-22T14:53:44.058Z,1.00
2022-09-22T14:56:24.424Z,1.33
2022-09-22T14:58:55.720Z,1.30
2022-09-22T15:01:55.429Z,1.65
2022-09-22T15:04:26.547Z,1.00
2022-09-22T15:07:03.221Z,1.02
2022-09-22T15:09:33.662Z,1.15
2022-09-22T15:12:10.251Z,1.10
2022-09-22T15:14:40.846Z,1.45
2022-09-22T15:18:03.299Z,1.30
2022-09-22T15:20:44.848Z,1.10
2022-09-22T15:23:34.282Z,1.27
2022-09-22T15:26:06.313Z,1.58
2022-09-22T15:28:44.243Z,1.30
2022-09-22T15:31:42.474Z,1.00
2022-09-22T15:34:17.328Z,1.10
2022-09-22T15:36:55.898Z,1.13
2022-09-22T15:39:31.236Z,1.00
2022-09-22T15:41:58.895Z,1.20
2022-09-22T15:44:27.505Z,1.17
2022-09-22T15:47:02.406Z,1.10
2022-09-22T15:49:33.253Z,1.27
2022-09-22T15:52:11.490Z,1.10
2022-09-22T15:54:39.123Z,1.10
2022-09-22T15:57:06.938Z,1.20
2022-09-22T15:59:43.486Z,1.10
2022-09-22T16:02:12.572Z,1.00
2022-09-22T16:04:40.220Z,1.27
2022-09-22T16:07:19.483Z,1.20
2022-09-22T16:09:47.398Z,1.33
2022-09-22T16:12:15.367Z,1.10
2022-09-22T16:14:49.486Z,0.80
2022-09-22T16:17:17.365Z,1.05
2022-09-22T16:19:44.865Z,1.00
2022-09-22T16:22:19.422Z,0.98
2022-09-22T16:24:46.950Z,1.17
2022-09-22T16:27:14.502Z,1.13
2022-09-22T16:29:49.462Z,1.20
2022-09-22T16:32:17.645Z,1.13
2022-09-22T16:35:05.452Z,1.00
2022-09-22T16:37:33.340Z,1.20
2022-09-22T16:40:00.993Z,1.30
2022-09-22T16:42:35.545Z,1.10
2022-09-22T16:45:05.155Z,1.30
2022-09-22T16:47:32.657Z,1.33
2022-09-22T16:50:08.153Z,1.13
2022-09-22T16:52:35.627Z,1.20
2022-09-22T16:55:06.843Z,1.02
2022-09-22T16:57:40.873Z,1.13
2022-09-22T17:00:10.869Z,1.15
2022-09-22T17:02:38.390Z,1.10
2022-09-22T17:05:13.874Z,1.20
2022-09-22T17:07:44.421Z,1.33
2022-09-22T17:10:13.671Z,1.30
2022-09-22T17:12:49.860Z,1.10
2022-09-22T17:15:17.684Z,1.33
2022-09-22T17:17:45.181Z,1.00
2022-09-22T17:20:19.857Z,1.13
2022-09-22T17:22:47.784Z,1.15
2022-09-22T17:25:15.647Z,1.20
2022-09-22T17:27:49.847Z,1.40
2022-09-22T17:30:17.703Z,1.45
2022-09-22T17:32:47.367Z,3.35
2022-09-22T17:35:21.919Z,1.73
2022-09-22T17:37:56.344Z,1.30
2022-09-22T17:40:30.918Z,1.40
2022-09-22T17:42:58.661Z,1.45
2022-09-22T17:45:26.340Z,1.23
2022-09-22T17:48:19.065Z,1.25
2022-09-22T17:51:08.912Z,1.10
2022-09-22T17:54:04.032Z,1.35
2022-09-22T17:56:31.822Z,1.37
2022-09-22T17:59:00.123Z,1.15
2022-09-22T18:01:36.144Z,1.58
2022-09-22T18:04:04.100Z,1.97
2022-09-22T18:06:31.644Z,2.10
2022-09-22T18:09:08.981Z,2.03
2022-09-22T18:11:42.221Z,1.42
2022-09-22T18:14:16.932Z,1.63
2022-09-22T18:16:44.732Z,1.70
2022-09-22T18:19:14.590Z,1.20
2022-09-22T18:21:51.630Z,1.40
2022-09-22T18:24:19.799Z,1.70
2022-09-22T18:26:50.098Z,1.67
2022-09-22T18:29:24.744Z,1.63
2022-09-22T18:31:55.135Z,1.50
2022-09-22T18:34:23.285Z,1.40
2022-09-22T18:36:59.002Z,1.55
2022-09-22T18:39:27.044Z,1.80
2022-09-22T18:41:57.758Z,1.50
2022-09-22T18:44:36.173Z,1.20
2022-09-22T18:47:05.164Z,1.70
2022-09-22T18:49:34.115Z,1.27
2022-09-22T18:52:12.902Z,1.47
2022-09-22T18:54:45.161Z,1.93
2022-09-22T18:57:24.156Z,1.60
2022-09-22T18:59:52.529Z,2.00
2022-09-22T19:02:21.736Z,1.70
2022-09-22T19:04:58.011Z,2.03
2022-09-22T19:07:41.850Z,2.07
2022-09-22T19:10:19.128Z,1.90
2022-09-22T19:12:47.231Z,2.00
2022-09-22T19:15:18.790Z,2.70
2022-09-22T19:17:56.048Z,2.83
2022-09-22T19:20:24.079Z,2.20
2022-09-22T19:22:52.888Z,1.97
2022-09-22T19:25:28.535Z,2.03
2022-09-22T19:27:57.118Z,1.87
2022-09-22T19:30:28.586Z,2.80
2022-09-22T19:33:06.064Z,2.00
2022-09-22T19:35:41.361Z,1.58
2022-09-22T19:38:22.268Z,2.10
2022-09-22T19:40:50.356Z,2.00
2022-09-22T19:43:22.893Z,1.70
2022-09-22T19:45:58.603Z,1.80
2022-09-22T19:48:26.363Z,1.90
2022-09-22T19:50:54.449Z,2.03
2022-09-22T19:53:35.790Z,2.00
2022-09-22T19:56:03.618Z,2.05
2022-09-22T19:58:35.734Z,1.80
2022-09-22T20:01:14.723Z,2.10
2022-09-22T20:03:42.423Z,1.77
2022-09-22T20:06:10.028Z,2.30
2022-09-22T20:08:45.677Z,2.45
2022-09-22T20:11:26.184Z,2.10
2022-09-22T20:14:19.560Z,2.70
2022-09-22T20:16:49.077Z,2.50
2022-09-22T20:19:18.505Z,2.43
2022-09-22T20:21:53.590Z,2.40
2022-09-22T20:24:24.274Z,2.50
2022-09-22T20:26:55.962Z,2.93
2022-09-22T20:29:30.056Z,2.30
2022-09-22T20:31:57.719Z,2.40
2022-09-22T20:34:30.926Z,2.22
2022-09-22T20:37:04.846Z,2.42
2022-09-22T20:39:33.601Z,2.20
2022-09-22T20:42:01.540Z,2.70
2022-09-22T20:44:38.790Z,2.47
2022-09-22T20:47:06.676Z,2.47
2022-09-22T20:49:35.756Z,2.40
2022-09-22T20:52:10.700Z,2.13
2022-09-22T20:54:38.237Z,2.53
2022-09-22T20:57:05.987Z,2.47
2022-09-22T20:59:40.154Z,2.63
2022-09-22T21:02:09.729Z,1.88
2022-09-22T21:04:37.280Z,2.20
2022-09-22T21:07:11.724Z,2.28
2022-09-22T21:09:57.640Z,2.10
2022-09-22T21:12:32.826Z,2.20
2022-09-22T21:15:00.632Z,2.40
2022-09-22T21:17:32.949Z,2.10
2022-09-22T21:20:10.136Z,2.40
2022-09-22T21:22:37.779Z,2.42
2022-09-22T21:25:05.708Z,2.58
2022-09-22T21:27:46.906Z,2.35
2022-09-22T21:30:14.674Z,2.70
2022-09-22T21:32:44.766Z,2.50
2022-09-22T21:35:23.481Z,2.60
2022-09-22T21:38:01.612Z,2.22
2022-09-22T21:40:38.218Z,2.67
2022-09-22T21:43:08.028Z,3.08
2022-09-22T21:45:35.511Z,2.50
2022-09-22T21:48:09.053Z,2.60
2022-09-22T21:50:39.201Z,2.70
2022-09-22T21:53:07.288Z,2.70
2022-09-22T21:55:41.138Z,2.75
2022-09-22T21:58:08.553Z,2.77
2022-09-22T22:00:51.705Z,3.03
2022-09-22T22:03:38.221Z,2.63
2022-09-22T22:06:25.432Z,2.37
2022-09-22T22:09:11.232Z,2.55
2022-09-22T22:11:42.506Z,2.60
2022-09-22T22:14:20.317Z,2.87
2022-09-22T22:16:52.564Z,2.93
2022-09-22T22:19:29.114Z,2.60
2022-09-22T22:21:56.699Z,2.55
2022-09-22T22:24:29.113Z,2.60
2022-09-22T22:27:08.118Z,2.40
2022-09-22T22:29:39.013Z,2.80
2022-09-22T22:32:22.228Z,2.38
2022-09-22T22:34:49.953Z,2.53
2022-09-22T22:37:33.313Z,2.50
2022-09-22T22:40:03.483Z,2.22
2022-09-22T22:42:40.340Z,2.47
2022-09-22T22:45:12.488Z,2.25
2022-09-22T22:53:16.430Z,2.20
2022-09-22T22:56:10.170Z,2.13
2022-09-22T22:58:45.530Z,2.23
2022-09-22T23:01:15.808Z,2.20
2022-09-22T23:04:00.112Z,2.63
2022-09-22T23:06:30.826Z,2.45
2022-09-22T23:08:58.900Z,2.20
2022-09-22T23:11:45.098Z,2.20
2022-09-22T23:14:13.353Z,2.25
2022-09-22T23:16:53.062Z,2.20
2022-09-22T23:19:20.621Z,2.33
2022-09-22T23:21:48.424Z,2.30
2022-09-22T23:24:25.089Z,2.40
2022-09-22T23:26:52.657Z,2.30
2022-09-22T23:29:20.337Z,2.50
2022-09-22T23:31:59.377Z,2.23
2022-09-22T23:34:27.544Z,2.30
2022-09-22T23:37:08.305Z,2.50
2022-09-22T23:39:36.218Z,2.50
2022-09-22T23:42:06.571Z,2.03
2022-09-22T23:44:43.458Z,2.27
2022-09-22T23:47:14.313Z,2.40
2022-09-22T23:49:50.436Z,2.50
2022-09-22T23:52:18.097Z,2.47
2022-09-22T23:54:45.911Z,2.03
2022-09-22T23:57:21.529Z,2.23
2022-09-22T23:59:51.901Z,2.17
